Nules, Spain
Current Conditions -  °F | °C
As of 2:00 AM on Tuesday 27 Jan 2015 (Local Time) from LEBT Reporting Station
Clear Clear  
Wind Chill: 41°   Ceiling: Unl
Heat Index: 41°   Visibility: 6mi
Dew Point: 36°   Wind: 3mph
Humidity: 81%   Direction: 360°N
Pressure: 30.33"   Gusts: NA
Location:  39.85°N, 0.16°W
Report Text: LEBT 270100Z AUTO 36003KT CAVOK 05/02 Q1027
Loading
Personal Weather Stations






























Interactive Weather Map New forecast layout! Learn more

10-Day Weather Forecast

Advertisements
Track Severe Weather on mobile